Terminal Aerodrome Forecast
Issued by NWS

Home | Current Version | Previous Version | Text Only | Print | Product List | Glossary On
Versions: 1 2 3 4 5 6 7 8 9 10 11 12 13 14 15 16 17 18 19 20 21 22 23
000
FTUS43 KILX 170800 AAA
TAFBMI
TAF AMD
KBMI 170850Z 1709/1806 18013KT P6SM SCT120 BKN250 WS020/21045KT
     FM171500 23012KT P6SM SCT040 OVC120
     FM172200 26009KT P6SM OVC070
     FM180200 VRB04KT P6SM OVC050=

USA.gov is the U.S. government's official web portal to all federal, state and local government web resources and services.